Řízení letového provozu České republiky  
Aktualizace dat:  11.12.2019 06:20:27 UTC English version
   METEO Zobrazení stránky:  11.12.2019 06:20:32 UTC  
vysvětlivky
METAR EDDB 110550Z 17009KT CAVOK 01/M03 Q1014 NOSIG=
METAR EDDC 110550Z 15009KT CAVOK 01/M04 Q1015 NOSIG=
METAR EDDE 110550Z 19009KT CAVOK 03/M04 Q1013 NOSIG=
METAR EDDF 110550Z 19005KT CAVOK 03/M01 Q1015 NOSIG=
METAR EDDM 110550Z VRB02KT CAVOK M05/M06 Q1017 NOSIG=
METAR EDDN 110550Z 11010KT CAVOK M02/M04 Q1016 NOSIG=
METAR EDDP 110550Z 20011KT CAVOK 03/M03 Q1014 NOSIG=
METAR EDDT 110550Z 19010KT CAVOK 03/M02 Q1013 NOSIG=
METAR EDQM 110550Z 18006KT CAVOK M01/M05 Q1014=
METAR EPBY 110600Z 16008KT 5000 BR BKN002 M02/M03 Q1018=
METAR EPGD 110600Z 17008KT 9999 SCT002 M01/M02 Q1016 R11/290095=
METAR EPKK 110600Z VRB01KT 0700 R25/2000N FZFG NSC M05/M06 Q1022=
METAR EPKT 110600Z 11004KT 1600 BR NSC M06/M07 Q1021=
METAR EPLL 110600Z VRB01KT 3000 BR NSC M07/M07 Q1021=
METAR EPPO 110600Z 15008KT CAVOK M02/M03 Q1017=
METAR EPRZ 110600Z 33003KT 9999 OVC038 M00/M02 Q1022=
METAR EPWA 110600Z 16004KT 7000 NSC M05/M05 Q1022 TEMPO 3000 BR=
METAR EPWR 110600Z 14009KT CAVOK M04/M06 Q1019=
METAR LHBP 110600Z 33006KT 9999 FEW030 00/M03 Q1021 NOSIG=
METAR LHSM 110545Z AUTO 33006KT 7000 NCD M03/M03 Q1022=
METAR LKBC 110600Z AUTO 08005KT CAVOK M05/M06 Q1018=
METAR LKCV 110600Z 13008KT CAVOK M03/M04 Q1019 NOSIG RMK BLU BLU=
METAR LKKB 110600Z 16008KT CAVOK M02/M04 Q1018 NOSIG RMK BLU BLU=
METAR LKKU 110600Z 07002KT CAVOK M07/M08 Q1021=
METAR LKKV 110600Z 15002KT CAVOK M04/M06 Q1016 RMK REG QNH 1012=
METAR LKLN 110600Z AUTO 00000KT CAVOK M07/M07 Q1018=
METAR LKMT 110600Z 19003KT 150V210 CAVOK M06/M07 Q1021 NOSIG RMK REG QNH 1012=
METAR LKNA 110600Z 13007KT CAVOK M04/M05 Q1019 NOSIG RMK BLU BLU=
METAR LKPD 110600Z 09006KT CAVOK M04/M06 Q1019 NOSIG RMK BLU BLU=
METAR LKPJ 110600Z AUTO 00000KT CAVOK ///// Q////=
METAR LKPR 110600Z 16010KT CAVOK M03/M05 Q1017 NOSIG RMK REG QNH 1012=
METAR LKTB 110600Z 05003KT 010V140 CAVOK M05/M06 Q1021 NOSIG RMK REG QNH 1012=
METAR LKVO NIL
METAR LOWI 110550Z 28003KT CAVOK M06/M07 Q1020 NOSIG=
METAR LOWL 110550Z VRB02KT 0400 R08/0450N FZBCFG FEW000 BKN001 M04/M04 Q1020 TEMPO 0300 SCT001=
METAR LOWS 110550Z 15010KT CAVOK M04/M06 Q1018 NOSIG=
METAR LOWW 110550Z 34003KT 7000 MIFG NSC M04/M04 Q1022 NOSIG=
METAR LZIB 110600Z 19004KT CAVOK M04/M06 Q1022 NOSIG=
METAR LZKZ 110600Z 36011KT CAVOK 01/M03 Q1021 NOSIG=
METAR LZMC 110600Z 24002KT CAVOK M08/M09 Q1022=
METAR LZPP 110600Z 04003KT 010V080 CAVOK M05/M07 Q1021=
METAR LZSL 110600Z 00000KT CAVOK M07/M08 Q1021=
METAR LZTT 110600Z 26005KT 9999 OVC022 M05/M07 Q1019 NOSIG=
METAR LZZI 110600Z 11003KT CAVOK M06/M07 Q1021=